sensor_id;sensor_type;location;lat;lon;timestamp;pressure;altitude;pressure_sealevel;temperature;humidity
47811;BME280;33575;52.600;7.318;2022-12-22T00:01:13;100263.74;;;8.13;100.00
47811;BME280;33575;52.600;7.318;2022-12-22T00:03:44;100267.42;;;8.18;100.00
47811;BME280;33575;52.600;7.318;2022-12-22T00:06:14;100268.07;;;8.22;100.00
47811;BME280;33575;52.600;7.318;2022-12-22T00:08:45;100263.68;;;8.23;100.00
47811;BME280;33575;52.600;7.318;2022-12-22T00:11:15;100262.12;;;8.28;100.00
47811;BME280;33575;52.600;7.318;2022-12-22T00:13:46;100260.30;;;8.30;100.00
47811;BME280;33575;52.600;7.318;2022-12-22T00:16:16;100258.93;;;8.30;100.00
47811;BME280;33575;52.600;7.318;2022-12-22T00:18:46;100254.81;;;8.26;100.00
47811;BME280;33575;52.600;7.318;2022-12-22T00:21:16;100253.40;;;8.34;100.00
47811;BME280;33575;52.600;7.318;2022-12-22T00:23:46;100251.17;;;8.31;100.00
47811;BME280;33575;52.600;7.318;2022-12-22T00:26:17;100245.70;;;8.31;99.90
47811;BME280;33575;52.600;7.318;2022-12-22T00:28:47;100242.22;;;8.37;100.00
47811;BME280;33575;52.600;7.318;2022-12-22T00:31:18;100238.85;;;8.40;100.00
47811;BME280;33575;52.600;7.318;2022-12-22T00:33:48;100234.02;;;8.38;99.82
47811;BME280;33575;52.600;7.318;2022-12-22T00:36:19;100232.07;;;8.37;100.00
47811;BME280;33575;52.600;7.318;2022-12-22T00:38:48;100229.25;;;8.41;100.00
47811;BME280;33575;52.600;7.318;2022-12-22T00:41:19;100233.91;;;8.45;100.00
47811;BME280;33575;52.600;7.318;2022-12-22T00:43:49;100228.27;;;8.47;99.84
47811;BME280;33575;52.600;7.318;2022-12-22T00:46:20;100229.75;;;8.52;99.59
47811;BME280;33575;52.600;7.318;2022-12-22T00:48:50;100225.61;;;8.53;99.16
47811;BME280;33575;52.600;7.318;2022-12-22T00:51:21;100223.56;;;8.53;99.26
47811;BME280;33575;52.600;7.318;2022-12-22T00:53:52;100224.72;;;8.50;99.49
47811;BME280;33575;52.600;7.318;2022-12-22T00:56:22;100226.87;;;8.44;100.00
47811;BME280;33575;52.600;7.318;2022-12-22T00:58:55;100222.35;;;8.45;100.00
47811;BME280;33575;52.600;7.318;2022-12-22T01:01:23;100214.86;;;8.37;100.00
47811;BME280;33575;52.600;7.318;2022-12-22T01:03:53;100210.58;;;8.33;100.00
47811;BME280;33575;52.600;7.318;2022-12-22T01:06:25;100203.85;;;8.30;100.00
47811;BME280;33575;52.600;7.318;2022-12-22T01:08:54;100204.94;;;8.29;100.00
47811;BME280;33575;52.600;7.318;2022-12-22T01:11:25;100200.89;;;8.36;99.96
47811;BME280;33575;52.600;7.318;2022-12-22T01:13:54;100198.64;;;8.31;100.00
47811;BME280;33575;52.600;7.318;2022-12-22T01:16:25;100197.70;;;8.32;100.00
47811;BME280;33575;52.600;7.318;2022-12-22T01:18:55;100191.02;;;8.32;100.00
47811;BME280;33575;52.600;7.318;2022-12-22T01:21:26;100189.19;;;8.33;100.00
47811;BME280;33575;52.600;7.318;2022-12-22T01:23:56;100187.22;;;8.37;100.00
47811;BME280;33575;52.600;7.318;2022-12-22T01:26:27;100181.26;;;8.36;100.00
47811;BME280;33575;52.600;7.318;2022-12-22T01:28:57;100179.54;;;8.39;100.00
47811;BME280;33575;52.600;7.318;2022-12-22T01:31:30;100174.71;;;8.41;100.00
47811;BME280;33575;52.600;7.318;2022-12-22T01:33:58;100171.74;;;8.44;100.00
47811;BME280;33575;52.600;7.318;2022-12-22T01:36:28;100172.54;;;8.45;100.00
47811;BME280;33575;52.600;7.318;2022-12-22T01:38:59;100170.56;;;8.47;100.00
47811;BME280;33575;52.600;7.318;2022-12-22T01:41:29;100169.40;;;8.44;100.00
47811;BME280;33575;52.600;7.318;2022-12-22T01:43:59;100167.14;;;8.49;100.00
47811;BME280;33575;52.600;7.318;2022-12-22T01:46:31;100165.79;;;8.52;99.75
47811;BME280;33575;52.600;7.318;2022-12-22T01:49:00;100165.73;;;8.55;100.00
47811;BME280;33575;52.600;7.318;2022-12-22T01:51:31;100166.29;;;8.59;100.00
47811;BME280;33575;52.600;7.318;2022-12-22T01:54:02;100164.76;;;8.57;100.00
47811;BME280;33575;52.600;7.318;2022-12-22T01:56:32;100162.79;;;8.55;100.00
47811;BME280;33575;52.600;7.318;2022-12-22T01:59:03;100159.93;;;8.55;99.80
47811;BME280;33575;52.600;7.318;2022-12-22T02:01:33;100153.44;;;8.58;100.00
47811;BME280;33575;52.600;7.318;2022-12-22T02:04:03;100146.93;;;8.67;100.00
47811;BME280;33575;52.600;7.318;2022-12-22T02:06:34;100141.48;;;8.75;99.23
47811;BME280;33575;52.600;7.318;2022-12-22T02:09:16;100139.10;;;8.84;99.28
47811;BME280;33575;52.600;7.318;2022-12-22T02:11:41;100140.04;;;8.89;100.00
47811;BME280;33575;52.600;7.318;2022-12-22T02:14:13;100139.78;;;9.03;100.00
47811;BME280;33575;52.600;7.318;2022-12-22T02:16:41;100137.32;;;9.13;100.00
47811;BME280;33575;52.600;7.318;2022-12-22T02:19:11;100136.23;;;9.12;100.00
47811;BME280;33575;52.600;7.318;2022-12-22T02:21:42;100125.99;;;9.16;100.00
47811;BME280;33575;52.600;7.318;2022-12-22T02:24:15;100123.03;;;9.15;99.13
47811;BME280;33575;52.600;7.318;2022-12-22T02:26:38;100121.94;;;9.10;98.51
47811;BME280;33575;52.600;7.318;2022-12-22T02:29:08;100112.96;;;9.09;98.92
47811;BME280;33575;52.600;7.318;2022-12-22T02:31:38;100111.39;;;9.04;99.62
47811;BME280;33575;52.600;7.318;2022-12-22T02:34:12;100108.13;;;9.00;99.40
47811;BME280;33575;52.600;7.318;2022-12-22T02:36:46;100104.96;;;8.98;99.01
47811;BME280;33575;52.600;7.318;2022-12-22T02:39:14;100101.53;;;8.93;98.46
47811;BME280;33575;52.600;7.318;2022-12-22T02:41:45;100097.09;;;8.86;98.89
47811;BME280;33575;52.600;7.318;2022-12-22T02:44:18;100093.34;;;8.77;99.19
47811;BME280;33575;52.600;7.318;2022-12-22T02:46:43;100090.50;;;8.75;99.70
47811;BME280;33575;52.600;7.318;2022-12-22T02:49:16;100084.63;;;8.74;99.27
47811;BME280;33575;52.600;7.318;2022-12-22T02:51:44;100082.61;;;8.71;100.00
47811;BME280;33575;52.600;7.318;2022-12-22T02:54:11;100075.73;;;8.71;100.00
47811;BME280;33575;52.600;7.318;2022-12-22T02:56:42;100075.20;;;8.69;100.00
47811;BME280;33575;52.600;7.318;2022-12-22T02:59:11;100075.22;;;8.71;100.00
47811;BME280;33575;52.600;7.318;2022-12-22T03:01:46;100072.95;;;8.75;99.68
47811;BME280;33575;52.600;7.318;2022-12-22T03:04:13;100069.02;;;8.76;98.93
47811;BME280;33575;52.600;7.318;2022-12-22T03:06:43;100063.67;;;8.75;99.77
47811;BME280;33575;52.600;7.318;2022-12-22T03:09:14;100060.87;;;8.78;99.84
47811;BME280;33575;52.600;7.318;2022-12-22T03:11:44;100056.80;;;8.81;99.56
47811;BME280;33575;52.600;7.318;2022-12-22T03:14:15;100057.56;;;8.82;98.18
47811;BME280;33575;52.600;7.318;2022-12-22T03:16:46;100059.03;;;8.80;99.44
47811;BME280;33575;52.600;7.318;2022-12-22T03:19:16;100058.39;;;8.77;98.75
47811;BME280;33575;52.600;7.318;2022-12-22T03:21:46;100051.18;;;8.78;98.66
47811;BME280;33575;52.600;7.318;2022-12-22T03:24:17;100042.26;;;8.76;100.00
47811;BME280;33575;52.600;7.318;2022-12-22T03:26:48;100040.78;;;8.77;98.90
47811;BME280;33575;52.600;7.318;2022-12-22T03:29:19;100036.66;;;8.76;100.00
47811;BME280;33575;52.600;7.318;2022-12-22T03:31:49;100034.32;;;8.73;99.57
47811;BME280;33575;52.600;7.318;2022-12-22T03:34:19;100034.02;;;8.73;100.00
47811;BME280;33575;52.600;7.318;2022-12-22T03:36:50;100028.66;;;8.70;100.00
47811;BME280;33575;52.600;7.318;2022-12-22T03:39:20;100024.46;;;8.74;100.00
47811;BME280;33575;52.600;7.318;2022-12-22T03:41:51;100026.95;;;8.70;100.00
47811;BME280;33575;52.600;7.318;2022-12-22T03:44:22;100026.79;;;8.71;100.00
47811;BME280;33575;52.600;7.318;2022-12-22T03:46:53;100022.20;;;8.72;100.00
47811;BME280;33575;52.600;7.318;2022-12-22T03:49:23;100016.96;;;8.73;100.00
47811;BME280;33575;52.600;7.318;2022-12-22T03:51:53;100012.34;;;8.76;100.00
47811;BME280;33575;52.600;7.318;2022-12-22T03:54:25;100011.13;;;8.70;100.00
47811;BME280;33575;52.600;7.318;2022-12-22T03:56:54;100000.87;;;8.72;100.00
47811;BME280;33575;52.600;7.318;2022-12-22T03:59:24;100002.87;;;8.75;100.00
47811;BME280;33575;52.600;7.318;2022-12-22T04:01:55;100001.07;;;8.78;99.83
47811;BME280;33575;52.600;7.318;2022-12-22T04:04:26;99998.03;;;8.78;99.03
47811;BME280;33575;52.600;7.318;2022-12-22T04:06:56;100006.96;;;8.81;98.92
47811;BME280;33575;52.600;7.318;2022-12-22T04:09:26;100015.28;;;8.86;98.20
47811;BME280;33575;52.600;7.318;2022-12-22T04:11:57;100012.39;;;8.79;99.18
47811;BME280;33575;52.600;7.318;2022-12-22T04:14:32;100005.74;;;8.85;98.12
47811;BME280;33575;52.600;7.318;2022-12-22T04:16:58;100011.40;;;8.87;97.69
47811;BME280;33575;52.600;7.318;2022-12-22T04:19:28;100014.27;;;8.88;97.12
47811;BME280;33575;52.600;7.318;2022-12-22T04:21:59;100013.70;;;8.88;97.23
47811;BME280;33575;52.600;7.318;2022-12-22T04:24:29;100003.65;;;8.92;97.64
47811;BME280;33575;52.600;7.318;2022-12-22T04:26:59;100003.01;;;8.92;97.37
47811;BME280;33575;52.600;7.318;2022-12-22T04:29:30;100003.27;;;8.97;97.36
47811;BME280;33575;52.600;7.318;2022-12-22T04:32:01;100004.38;;;9.01;97.28
47811;BME280;33575;52.600;7.318;2022-12-22T04:34:31;100001.30;;;9.03;97.67
47811;BME280;33575;52.600;7.318;2022-12-22T04:37:06;100003.44;;;9.04;96.81
47811;BME280;33575;52.600;7.318;2022-12-22T04:39:31;100006.22;;;9.00;97.34
47811;BME280;33575;52.600;7.318;2022-12-22T04:42:02;100004.51;;;8.95;97.61
47811;BME280;33575;52.600;7.318;2022-12-22T04:44:33;100005.13;;;8.93;97.47
47811;BME280;33575;52.600;7.318;2022-12-22T04:47:03;100002.28;;;8.96;97.64
47811;BME280;33575;52.600;7.318;2022-12-22T04:49:33;99999.05;;;9.00;97.21
47811;BME280;33575;52.600;7.318;2022-12-22T04:52:04;99990.43;;;9.02;97.63
47811;BME280;33575;52.600;7.318;2022-12-22T04:54:35;99991.46;;;9.01;97.47
47811;BME280;33575;52.600;7.318;2022-12-22T04:57:06;99984.38;;;9.04;97.08
47811;BME280;33575;52.600;7.318;2022-12-22T04:59:36;99988.30;;;9.05;97.04
47811;BME280;33575;52.600;7.318;2022-12-22T05:02:06;99990.74;;;9.09;97.18
47811;BME280;33575;52.600;7.318;2022-12-22T05:04:37;99990.20;;;9.10;97.43
47811;BME280;33575;52.600;7.318;2022-12-22T05:07:07;99992.42;;;9.12;97.46
47811;BME280;33575;52.600;7.318;2022-12-22T05:09:37;99989.81;;;9.16;97.47
47811;BME280;33575;52.600;7.318;2022-12-22T05:12:08;99988.91;;;9.21;97.47
47811;BME280;33575;52.600;7.318;2022-12-22T05:14:38;99981.36;;;9.23;97.10
47811;BME280;33575;52.600;7.318;2022-12-22T05:17:08;99980.16;;;9.26;97.21
47811;BME280;33575;52.600;7.318;2022-12-22T05:19:39;99977.99;;;9.30;97.16
47811;BME280;33575;52.600;7.318;2022-12-22T05:22:09;99980.62;;;9.32;96.95
47811;BME280;33575;52.600;7.318;2022-12-22T05:24:40;99981.76;;;9.34;96.82
47811;BME280;33575;52.600;7.318;2022-12-22T05:27:11;99982.16;;;9.35;96.87
47811;BME280;33575;52.600;7.318;2022-12-22T05:29:40;99986.02;;;9.37;96.65
47811;BME280;33575;52.600;7.318;2022-12-22T05:32:11;99992.23;;;9.36;96.20
47811;BME280;33575;52.600;7.318;2022-12-22T05:34:41;99994.44;;;9.34;96.46
47811;BME280;33575;52.600;7.318;2022-12-22T05:37:12;99991.22;;;9.34;95.80
47811;BME280;33575;52.600;7.318;2022-12-22T05:39:42;99975.59;;;9.30;96.42
47811;BME280;33575;52.600;7.318;2022-12-22T05:42:13;99964.72;;;9.28;96.50
47811;BME280;33575;52.600;7.318;2022-12-22T05:44:43;99971.49;;;9.26;96.74
47811;BME280;33575;52.600;7.318;2022-12-22T05:47:14;99976.54;;;9.27;96.87
47811;BME280;33575;52.600;7.318;2022-12-22T05:49:44;99980.50;;;9.28;96.55
47811;BME280;33575;52.600;7.318;2022-12-22T05:52:15;99974.38;;;9.29;96.48
47811;BME280;33575;52.600;7.318;2022-12-22T05:54:45;99974.59;;;9.31;96.66
47811;BME280;33575;52.600;7.318;2022-12-22T05:57:16;99976.27;;;9.30;96.57
47811;BME280;33575;52.600;7.318;2022-12-22T05:59:46;99976.96;;;9.30;96.89
47811;BME280;33575;52.600;7.318;2022-12-22T06:02:17;99978.70;;;9.30;96.49
47811;BME280;33575;52.600;7.318;2022-12-22T06:04:47;99977.08;;;9.25;97.34
47811;BME280;33575;52.600;7.318;2022-12-22T06:07:18;99977.53;;;9.21;96.96
47811;BME280;33575;52.600;7.318;2022-12-22T06:09:48;99983.20;;;9.20;97.30
47811;BME280;33575;52.600;7.318;2022-12-22T06:12:19;99983.15;;;9.24;97.11
47811;BME280;33575;52.600;7.318;2022-12-22T06:14:49;99979.09;;;9.25;96.80
47811;BME280;33575;52.600;7.318;2022-12-22T06:17:19;99981.30;;;9.31;97.10
47811;BME280;33575;52.600;7.318;2022-12-22T06:19:50;99977.01;;;9.27;97.21
47811;BME280;33575;52.600;7.318;2022-12-22T06:22:20;99976.35;;;9.24;97.40
47811;BME280;33575;52.600;7.318;2022-12-22T06:24:50;99979.74;;;9.24;97.63
47811;BME280;33575;52.600;7.318;2022-12-22T06:27:20;99981.68;;;9.27;97.26
47811;BME280;33575;52.600;7.318;2022-12-22T06:29:51;99984.90;;;9.31;97.27
47811;BME280;33575;52.600;7.318;2022-12-22T06:32:21;99985.01;;;9.36;97.19
47811;BME280;33575;52.600;7.318;2022-12-22T06:34:51;99990.57;;;9.42;97.29
47811;BME280;33575;52.600;7.318;2022-12-22T06:37:22;99995.08;;;9.46;97.47
47811;BME280;33575;52.600;7.318;2022-12-22T06:39:52;99994.66;;;9.49;97.33
47811;BME280;33575;52.600;7.318;2022-12-22T06:42:23;99998.35;;;9.49;97.28
47811;BME280;33575;52.600;7.318;2022-12-22T06:44:53;99996.21;;;9.47;96.94
47811;BME280;33575;52.600;7.318;2022-12-22T06:47:24;99997.50;;;9.46;97.06
47811;BME280;33575;52.600;7.318;2022-12-22T06:49:54;100002.19;;;9.48;96.95
47811;BME280;33575;52.600;7.318;2022-12-22T06:52:25;100006.23;;;9.50;96.89
47811;BME280;33575;52.600;7.318;2022-12-22T06:54:55;100011.45;;;9.51;96.21
47811;BME280;33575;52.600;7.318;2022-12-22T06:57:26;100014.18;;;9.52;96.41
47811;BME280;33575;52.600;7.318;2022-12-22T06:59:59;100018.33;;;9.51;96.19
47811;BME280;33575;52.600;7.318;2022-12-22T07:02:27;100024.26;;;9.50;96.69
47811;BME280;33575;52.600;7.318;2022-12-22T07:04:58;100029.01;;;9.49;96.71
47811;BME280;33575;52.600;7.318;2022-12-22T07:07:29;100030.02;;;9.43;95.93
47811;BME280;33575;52.600;7.318;2022-12-22T07:10:00;100024.61;;;9.42;97.01
47811;BME280;33575;52.600;7.318;2022-12-22T07:12:30;100026.94;;;9.41;97.10
47811;BME280;33575;52.600;7.318;2022-12-22T07:15:01;100029.69;;;9.42;97.09
47811;BME280;33575;52.600;7.318;2022-12-22T07:17:31;100035.24;;;9.44;97.22
47811;BME280;33575;52.600;7.318;2022-12-22T07:20:02;100039.26;;;9.47;96.68
47811;BME280;33575;52.600;7.318;2022-12-22T07:22:32;100043.96;;;9.48;96.79
47811;BME280;33575;52.600;7.318;2022-12-22T07:25:03;100039.45;;;9.48;97.20
47811;BME280;33575;52.600;7.318;2022-12-22T07:27:34;100032.04;;;9.36;97.02
47811;BME280;33575;52.600;7.318;2022-12-22T07:30:05;100032.69;;;9.26;96.91
47811;BME280;33575;52.600;7.318;2022-12-22T07:32:35;100033.15;;;9.25;97.25
47811;BME280;33575;52.600;7.318;2022-12-22T07:35:07;100038.66;;;9.29;97.04
47811;BME280;33575;52.600;7.318;2022-12-22T07:37:36;100047.43;;;9.16;97.53
47811;BME280;33575;52.600;7.318;2022-12-22T07:40:08;100061.43;;;9.18;97.14
47811;BME280;33575;52.600;7.318;2022-12-22T07:42:37;100062.80;;;9.16;97.00
47811;BME280;33575;52.600;7.318;2022-12-22T07:45:08;100065.96;;;9.18;97.16
47811;BME280;33575;52.600;7.318;2022-12-22T07:47:38;100073.51;;;9.19;97.41
47811;BME280;33575;52.600;7.318;2022-12-22T07:50:11;100076.82;;;9.18;97.19
47811;BME280;33575;52.600;7.318;2022-12-22T07:52:39;100079.44;;;9.22;97.13
47811;BME280;33575;52.600;7.318;2022-12-22T07:55:10;100083.60;;;9.22;96.83
47811;BME280;33575;52.600;7.318;2022-12-22T07:57:40;100083.93;;;9.22;96.94
47811;BME280;33575;52.600;7.318;2022-12-22T08:00:12;100083.94;;;9.22;96.03
47811;BME280;33575;52.600;7.318;2022-12-22T08:02:41;100079.88;;;9.13;96.17
47811;BME280;33575;52.600;7.318;2022-12-22T08:05:11;100080.56;;;9.11;96.41
47811;BME280;33575;52.600;7.318;2022-12-22T08:07:41;100080.69;;;9.11;96.78
47811;BME280;33575;52.600;7.318;2022-12-22T08:10:12;100087.44;;;9.12;97.12
47811;BME280;33575;52.600;7.318;2022-12-22T08:12:43;100084.70;;;9.10;96.94
47811;BME280;33575;52.600;7.318;2022-12-22T08:15:13;100084.39;;;9.08;96.84
47811;BME280;33575;52.600;7.318;2022-12-22T08:17:44;100093.35;;;9.02;97.58
47811;BME280;33575;52.600;7.318;2022-12-22T08:20:14;100093.38;;;8.82;100.00
47811;BME280;33575;52.600;7.318;2022-12-22T08:22:44;100097.66;;;8.83;100.00
47811;BME280;33575;52.600;7.318;2022-12-22T08:25:15;100098.72;;;8.76;100.00
47811;BME280;33575;52.600;7.318;2022-12-22T08:27:48;100100.99;;;8.77;99.94
47811;BME280;33575;52.600;7.318;2022-12-22T08:30:16;100102.17;;;8.74;99.76
47811;BME280;33575;52.600;7.318;2022-12-22T08:32:49;100099.16;;;8.76;98.86
47811;BME280;33575;52.600;7.318;2022-12-22T08:35:18;100094.30;;;8.75;99.39
47811;BME280;33575;52.600;7.318;2022-12-22T08:37:48;100094.06;;;8.80;98.42
47811;BME280;33575;52.600;7.318;2022-12-22T08:40:22;100093.03;;;8.84;97.66
47811;BME280;33575;52.600;7.318;2022-12-22T08:42:52;100092.15;;;8.88;98.16
47811;BME280;33575;52.600;7.318;2022-12-22T08:45:20;100090.31;;;8.90;97.50
47811;BME280;33575;52.600;7.318;2022-12-22T08:47:51;100092.25;;;8.95;98.57
47811;BME280;33575;52.600;7.318;2022-12-22T08:50:21;100096.33;;;8.97;98.10
47811;BME280;33575;52.600;7.318;2022-12-22T08:52:51;100101.25;;;8.97;97.95
47811;BME280;33575;52.600;7.318;2022-12-22T08:55:22;100101.65;;;9.00;97.77
47811;BME280;33575;52.600;7.318;2022-12-22T08:57:57;100106.54;;;9.04;97.05
47811;BME280;33575;52.600;7.318;2022-12-22T09:00:24;100104.33;;;9.04;98.01
47811;BME280;33575;52.600;7.318;2022-12-22T09:02:53;100114.75;;;9.09;96.58
47811;BME280;33575;52.600;7.318;2022-12-22T09:05:24;100119.89;;;9.04;97.22
47811;BME280;33575;52.600;7.318;2022-12-22T09:07:54;100124.95;;;9.01;97.72
47811;BME280;33575;52.600;7.318;2022-12-22T09:10:25;100122.89;;;9.02;96.99
47811;BME280;33575;52.600;7.318;2022-12-22T09:12:55;100121.15;;;9.06;97.20
47811;BME280;33575;52.600;7.318;2022-12-22T09:15:26;100122.76;;;9.08;96.78
47811;BME280;33575;52.600;7.318;2022-12-22T09:17:56;100125.61;;;9.05;97.75
47811;BME280;33575;52.600;7.318;2022-12-22T09:20:27;100130.12;;;8.99;97.16
47811;BME280;33575;52.600;7.318;2022-12-22T09:22:58;100129.92;;;8.88;98.03
47811;BME280;33575;52.600;7.318;2022-12-22T09:25:28;100131.06;;;8.83;97.77
47811;BME280;33575;52.600;7.318;2022-12-22T09:27:59;100138.13;;;8.77;98.27
47811;BME280;33575;52.600;7.318;2022-12-22T09:30:29;100143.31;;;8.73;97.75
47811;BME280;33575;52.600;7.318;2022-12-22T09:33:00;100140.96;;;8.64;99.11
47811;BME280;33575;52.600;7.318;2022-12-22T09:35:30;100153.49;;;8.56;99.35
47811;BME280;33575;52.600;7.318;2022-12-22T09:38:01;100157.17;;;8.57;99.30
47811;BME280;33575;52.600;7.318;2022-12-22T09:40:32;100159.94;;;8.52;100.00
47811;BME280;33575;52.600;7.318;2022-12-22T09:43:03;100165.08;;;8.50;100.00
47811;BME280;33575;52.600;7.318;2022-12-22T09:45:34;100166.92;;;8.40;100.00
47811;BME280;33575;52.600;7.318;2022-12-22T09:48:10;100170.00;;;8.42;100.00
47811;BME280;33575;52.600;7.318;2022-12-22T09:50:33;100178.41;;;8.52;100.00
47811;BME280;33575;52.600;7.318;2022-12-22T09:53:06;100182.45;;;8.20;100.00
47811;BME280;33575;52.600;7.318;2022-12-22T09:55:38;100183.52;;;8.27;100.00
47811;BME280;33575;52.600;7.318;2022-12-22T09:58:14;100186.55;;;8.33;100.00
47811;BME280;33575;52.600;7.318;2022-12-22T10:00:35;100181.73;;;8.50;100.00
47811;BME280;33575;52.600;7.318;2022-12-22T10:03:10;100185.35;;;8.47;99.64
47811;BME280;33575;52.600;7.318;2022-12-22T10:05:40;100193.51;;;8.52;99.05
47811;BME280;33575;52.600;7.318;2022-12-22T10:08:10;100194.67;;;8.51;99.95
47811;BME280;33575;52.600;7.318;2022-12-22T10:10:38;100193.03;;;8.52;99.26
47811;BME280;33575;52.600;7.318;2022-12-22T10:13:15;100196.08;;;8.45;99.41
47811;BME280;33575;52.600;7.318;2022-12-22T10:15:40;100197.01;;;8.31;100.00
47811;BME280;33575;52.600;7.318;2022-12-22T10:18:10;100199.73;;;8.35;100.00
47811;BME280;33575;52.600;7.318;2022-12-22T10:20:39;100204.79;;;8.32;100.00
47811;BME280;33575;52.600;7.318;2022-12-22T10:23:16;100210.27;;;8.32;99.02
47811;BME280;33575;52.600;7.318;2022-12-22T10:28:12;100231.29;;;8.27;98.91
47811;BME280;33575;52.600;7.318;2022-12-22T10:30:41;100233.17;;;8.26;97.91
47811;BME280;33575;52.600;7.318;2022-12-22T10:33:13;100239.73;;;8.06;99.23
47811;BME280;33575;52.600;7.318;2022-12-22T10:35:45;100242.78;;;8.09;99.00
47811;BME280;33575;52.600;7.318;2022-12-22T10:38:21;100241.12;;;8.00;98.90
47811;BME280;33575;52.600;7.318;2022-12-22T10:40:42;100248.85;;;8.01;99.19
47811;BME280;33575;52.600;7.318;2022-12-22T10:43:18;100247.17;;;7.95;99.38
47811;BME280;33575;52.600;7.318;2022-12-22T10:45:46;100246.98;;;7.84;98.73
47811;BME280;33575;52.600;7.318;2022-12-22T10:48:14;100250.54;;;7.84;98.82
47811;BME280;33575;52.600;7.318;2022-12-22T10:50:44;100250.99;;;7.77;97.91
47811;BME280;33575;52.600;7.318;2022-12-22T10:53:14;100250.79;;;7.63;99.46
47811;BME280;33575;52.600;7.318;2022-12-22T10:55:45;100246.09;;;7.68;99.03
47811;BME280;33575;52.600;7.318;2022-12-22T10:58:17;100238.36;;;7.63;98.25
47811;BME280;33575;52.600;7.318;2022-12-22T11:03:28;100230.66;;;7.67;98.04
47811;BME280;33575;52.600;7.318;2022-12-22T11:05:46;100234.32;;;7.78;97.46
47811;BME280;33575;52.600;7.318;2022-12-22T11:08:19;100236.89;;;7.84;97.60
47811;BME280;33575;52.600;7.318;2022-12-22T11:10:51;100239.93;;;7.83;98.31
47811;BME280;33575;52.600;7.318;2022-12-22T11:13:31;100244.01;;;7.89;96.62
47811;BME280;33575;52.600;7.318;2022-12-22T11:15:53;100244.03;;;7.93;98.05
47811;BME280;33575;52.600;7.318;2022-12-22T11:18:33;100243.67;;;7.85;97.29
47811;BME280;33575;52.600;7.318;2022-12-22T11:20:54;100246.71;;;7.91;97.19
47811;BME280;33575;52.600;7.318;2022-12-22T11:23:27;100249.29;;;7.92;99.12
47811;BME280;33575;52.600;7.318;2022-12-22T11:25:59;100249.25;;;7.81;97.87
47811;BME280;33575;52.600;7.318;2022-12-22T11:28:32;100258.21;;;7.81;97.91
47811;BME280;33575;52.600;7.318;2022-12-22T11:31:00;100259.49;;;7.77;97.11
47811;BME280;33575;52.600;7.318;2022-12-22T11:33:33;100267.39;;;7.74;96.95
47811;BME280;33575;52.600;7.318;2022-12-22T11:35:57;100281.05;;;7.74;96.34
47811;BME280;33575;52.600;7.318;2022-12-22T11:38:34;100283.06;;;7.72;97.34
47811;BME280;33575;52.600;7.318;2022-12-22T11:40:59;100289.20;;;7.74;96.75
47811;BME280;33575;52.600;7.318;2022-12-22T11:43:33;100289.52;;;7.70;96.95
47811;BME280;33575;52.600;7.318;2022-12-22T11:46:05;100296.25;;;7.68;96.98
47811;BME280;33575;52.600;7.318;2022-12-22T11:48:45;100296.12;;;7.69;96.78
47811;BME280;33575;52.600;7.318;2022-12-22T11:51:05;100298.91;;;7.69;96.46
47811;BME280;33575;52.600;7.318;2022-12-22T11:56:05;100297.57;;;7.63;96.80
47811;BME280;33575;52.600;7.318;2022-12-22T12:01:10;100290.09;;;7.41;98.59
47811;BME280;33575;52.600;7.318;2022-12-22T12:03:40;100291.32;;;7.54;97.61
47811;BME280;33575;52.600;7.318;2022-12-22T12:06:10;100290.06;;;7.57;97.95
47811;BME280;33575;52.600;7.318;2022-12-22T12:08:37;100293.04;;;7.58;97.43
47811;BME280;33575;52.600;7.318;2022-12-22T12:11:07;100296.24;;;7.66;97.41
47811;BME280;33575;52.600;7.318;2022-12-22T12:13:42;100301.58;;;7.71;96.53
47811;BME280;33575;52.600;7.318;2022-12-22T12:16:05;100298.13;;;7.67;96.31
47811;BME280;33575;52.600;7.318;2022-12-22T12:18:42;100294.73;;;7.77;96.80
47811;BME280;33575;52.600;7.318;2022-12-22T12:21:08;100294.23;;;7.79;96.57
47811;BME280;33575;52.600;7.318;2022-12-22T12:23:44;100298.60;;;7.83;96.50
47811;BME280;33575;52.600;7.318;2022-12-22T12:26:06;100288.95;;;7.83;95.73
47811;BME280;33575;52.600;7.318;2022-12-22T12:28:40;100292.02;;;7.85;95.47
47811;BME280;33575;52.600;7.318;2022-12-22T12:31:02;100288.58;;;7.83;95.62
47811;BME280;33575;52.600;7.318;2022-12-22T12:33:41;100292.44;;;7.84;96.10
47811;BME280;33575;52.600;7.318;2022-12-22T12:36:09;100288.02;;;7.83;94.81
47811;BME280;33575;52.600;7.318;2022-12-22T12:38:45;100288.77;;;7.81;95.18
47811;BME280;33575;52.600;7.318;2022-12-22T12:41:08;100289.25;;;7.82;96.07
47811;BME280;33575;52.600;7.318;2022-12-22T12:43:34;100293.40;;;7.63;96.66
47811;BME280;33575;52.600;7.318;2022-12-22T12:48:38;100296.28;;;7.90;96.08
47811;BME280;33575;52.600;7.318;2022-12-22T12:53:34;100305.19;;;8.03;95.21
47811;BME280;33575;52.600;7.318;2022-12-22T12:56:07;100305.19;;;7.96;94.14
47811;BME280;33575;52.600;7.318;2022-12-22T13:01:09;100304.73;;;7.88;94.32
47811;BME280;33575;52.600;7.318;2022-12-22T13:03:42;100305.32;;;7.87;93.24
47811;BME280;33575;52.600;7.318;2022-12-22T13:06:08;100304.68;;;7.79;91.39
47811;BME280;33575;52.600;7.318;2022-12-22T13:11:16;100309.30;;;7.63;91.71
47811;BME280;33575;52.600;7.318;2022-12-22T13:13:43;100309.47;;;7.57;93.74
47811;BME280;33575;52.600;7.318;2022-12-22T13:18:42;100304.13;;;7.55;96.22
47811;BME280;33575;52.600;7.318;2022-12-22T13:21:16;100305.90;;;7.71;96.36
47811;BME280;33575;52.600;7.318;2022-12-22T13:23:45;100301.71;;;7.78;94.49
47811;BME280;33575;52.600;7.318;2022-12-22T13:26:12;100298.74;;;7.79;93.86
47811;BME280;33575;52.600;7.318;2022-12-22T13:28:41;100304.32;;;7.70;93.03
47811;BME280;33575;52.600;7.318;2022-12-22T13:31:15;100303.86;;;7.70;92.94
47811;BME280;33575;52.600;7.318;2022-12-22T13:33:41;100307.97;;;7.67;93.14
47811;BME280;33575;52.600;7.318;2022-12-22T13:36:17;100304.79;;;7.61;92.95
47811;BME280;33575;52.600;7.318;2022-12-22T13:38:41;100303.27;;;7.62;93.86